createdAt,value
2019-04-16T00:00:29.878Z,99.90
2019-04-16T00:05:46.797Z,99.90
2019-04-16T00:11:25.624Z,99.90
2019-04-16T00:16:30.217Z,99.90
2019-04-16T00:22:04.578Z,99.90
2019-04-16T00:27:09.247Z,99.90
2019-04-16T00:32:42.404Z,99.90
2019-04-16T00:37:45.549Z,99.90
2019-04-16T00:42:50.159Z,99.90
2019-04-16T00:47:57.178Z,99.90
2019-04-16T00:53:01.248Z,99.90
2019-04-16T00:58:05.977Z,99.90
2019-04-16T01:03:10.528Z,99.90
2019-04-16T01:08:15.191Z,99.90
2019-04-16T01:13:21.710Z,99.90
2019-04-16T01:18:26.105Z,99.90
2019-04-16T01:23:30.743Z,99.90
2019-04-16T01:28:38.570Z,99.90
2019-04-16T01:33:59.962Z,99.90
2019-04-16T01:39:15.975Z,99.90
2019-04-16T01:44:13.280Z,99.90
2019-04-16T01:49:21.137Z,99.90
2019-04-16T01:54:26.787Z,99.90
2019-04-16T01:59:35.642Z,99.90
2019-04-16T02:04:37.833Z,99.90
2019-04-16T02:09:42.442Z,99.90
2019-04-16T02:14:51.199Z,99.90
2019-04-16T02:19:55.924Z,99.90
2019-04-16T02:25:00.443Z,99.90
2019-04-16T02:30:05.994Z,99.90
2019-04-16T02:35:11.645Z,99.90
2019-04-16T02:40:18.932Z,99.90
2019-04-16T02:45:24.607Z,99.90
2019-04-16T02:50:50.205Z,99.90
2019-04-16T02:56:23.757Z,99.90
2019-04-16T03:01:36.943Z,99.90
2019-04-16T03:06:41.562Z,99.90
2019-04-16T03:11:48.928Z,99.90
2019-04-16T03:17:27.682Z,99.90
2019-04-16T03:22:33.493Z,99.90
2019-04-16T03:27:38.604Z,99.90
2019-04-16T03:32:52.562Z,99.90
2019-04-16T03:37:57.026Z,99.90
2019-04-16T03:43:04.019Z,99.90
2019-04-16T03:48:09.801Z,99.90
2019-04-16T03:53:17.534Z,99.90
2019-04-16T03:58:20.660Z,99.90
2019-04-16T04:03:26.153Z,99.90
2019-04-16T04:08:32.059Z,99.90
2019-04-16T04:13:36.856Z,99.90
2019-04-16T04:18:43.135Z,99.90
2019-04-16T04:23:48.159Z,99.90
2019-04-16T04:28:52.736Z,99.90
2019-04-16T04:33:57.442Z,99.90
2019-04-16T04:39:02.010Z,99.90
2019-04-16T04:44:06.481Z,99.90
2019-04-16T04:49:11.226Z,99.90
2019-04-16T04:54:15.938Z,99.90
2019-04-16T04:59:20.409Z,99.90
2019-04-16T05:04:35.916Z,99.90
2019-04-16T05:09:40.455Z,99.90
2019-04-16T05:14:57.244Z,99.90
2019-04-16T05:19:58.764Z,99.90
2019-04-16T05:25:04.875Z,99.90
2019-04-16T05:30:10.367Z,99.90
2019-04-16T05:35:15.304Z,99.90
2019-04-16T05:40:19.911Z,99.90
2019-04-16T05:45:24.683Z,99.90
2019-04-16T05:50:29.945Z,99.90
2019-04-16T05:55:49.382Z,99.90
2019-04-16T06:01:03.484Z,99.90
2019-04-16T06:06:08.099Z,99.90
2019-04-16T06:11:26.710Z,99.90
2019-04-16T06:16:36.995Z,99.90
2019-04-16T06:21:59.303Z,99.90
2019-04-16T06:27:21.821Z,99.90
2019-04-16T06:32:43.785Z,99.90
2019-04-16T06:38:04.401Z,99.90
2019-04-16T06:43:26.321Z,99.90
2019-04-16T06:48:33.570Z,99.90
2019-04-16T06:54:12.611Z,99.90
2019-04-16T06:59:41.139Z,99.90
2019-04-16T07:05:05.029Z,99.90
2019-04-16T07:10:18.423Z,99.90
2019-04-16T07:15:26.310Z,99.90
2019-04-16T07:20:29.437Z,99.90
2019-04-16T07:25:39.997Z,99.70
2019-04-16T07:30:53.581Z,99.70
2019-04-16T07:36:27.281Z,99.80
2019-04-16T07:41:47.403Z,97.90
2019-04-16T07:47:10.736Z,98.30
2019-04-16T07:52:24.642Z,98.00
2019-04-16T07:57:29.685Z,96.70
2019-04-16T08:02:34.432Z,95.50
2019-04-16T08:07:39.176Z,95.30
2019-04-16T08:12:49.243Z,94.30
2019-04-16T08:17:56.902Z,92.10
2019-04-16T08:23:04.013Z,92.30
2019-04-16T08:28:09.011Z,91.00
2019-04-16T08:33:13.678Z,91.90
2019-04-16T08:38:18.337Z,93.30
2019-04-16T08:43:22.944Z,90.30
2019-04-16T08:48:27.559Z,90.60
2019-04-16T08:53:35.589Z,87.90
2019-04-16T08:58:40.284Z,88.70
2019-04-16T09:03:45.093Z,89.00
2019-04-16T09:09:13.468Z,88.80
2019-04-16T09:14:34.259Z,88.10
2019-04-16T09:19:40.556Z,90.00
2019-04-16T09:25:01.566Z,84.90
2019-04-16T09:30:20.139Z,86.60
2019-04-16T09:35:32.276Z,87.20
2019-04-16T09:41:04.858Z,83.90
2019-04-16T09:46:11.850Z,84.30
2019-04-16T09:51:20.540Z,80.90
2019-04-16T09:56:35.021Z,82.80
2019-04-16T10:01:45.606Z,83.60
2019-04-16T10:06:51.703Z,77.50
2019-04-16T10:11:57.429Z,80.20
2019-04-16T10:17:03.490Z,77.40
2019-04-16T10:22:08.215Z,79.00
2019-04-16T10:27:17.973Z,76.90
2019-04-16T10:32:23.382Z,79.40
2019-04-16T10:37:28.192Z,77.60
2019-04-16T10:42:46.333Z,79.80
2019-04-16T10:48:08.654Z,78.50
2019-04-16T10:53:21.115Z,79.40
2019-04-16T10:58:44.863Z,76.20
2019-04-16T11:03:59.561Z,77.10
2019-04-16T11:09:06.421Z,75.10
2019-04-16T11:14:11.141Z,73.70
2019-04-16T11:19:16.232Z,73.60
2019-04-16T11:24:20.902Z,74.00
2019-04-16T11:29:34.531Z,73.40
2019-04-16T11:34:45.846Z,73.60
2019-04-16T11:40:06.548Z,73.60
2019-04-16T11:45:14.428Z,69.80
2019-04-16T11:50:19.169Z,67.90
2019-04-16T11:55:23.882Z,68.20
2019-04-16T12:00:42.173Z,71.90
2019-04-16T12:06:02.469Z,65.40
2019-04-16T12:11:27.340Z,62.90
2019-04-16T12:16:46.999Z,67.00
2019-04-16T12:22:15.609Z,72.00
2019-04-16T12:27:44.181Z,69.00
2019-04-16T12:33:15.086Z,64.70
2019-04-16T12:38:26.410Z,64.20
2019-04-16T12:43:36.471Z,64.10
2019-04-16T12:49:01.724Z,63.90
2019-04-16T12:54:26.234Z,65.10
2019-04-16T12:59:43.213Z,65.10
2019-04-16T13:05:01.686Z,66.90
2019-04-16T13:10:14.811Z,69.80
2019-04-16T13:15:38.595Z,66.90
2019-04-16T13:21:03.514Z,63.70
2019-04-16T13:26:13.082Z,66.20
2019-04-16T13:31:17.150Z,66.60
2019-04-16T13:36:27.000Z,66.40
2019-04-16T13:41:31.217Z,63.10
2019-04-16T13:46:35.928Z,67.30
2019-04-16T13:51:40.388Z,65.80
2019-04-16T13:56:51.576Z,65.50
2019-04-16T14:01:59.910Z,68.60
2019-04-16T14:07:04.493Z,65.90
2019-04-16T14:12:09.137Z,70.40
2019-04-16T14:17:17.993Z,70.80
2019-04-16T14:22:24.372Z,70.90
2019-04-16T14:27:33.603Z,71.70
2019-04-16T14:32:38.779Z,73.90
2019-04-16T14:37:43.433Z,76.60
2019-04-16T14:42:48.172Z,78.40
2019-04-16T14:47:57.762Z,78.70
2019-04-16T14:53:08.914Z,77.00
2019-04-16T14:58:23.579Z,79.10
2019-04-16T15:03:55.325Z,78.60
2019-04-16T15:09:14.952Z,80.80
2019-04-16T15:14:27.092Z,80.20
2019-04-16T15:19:35.510Z,79.00
2019-04-16T15:25:05.537Z,81.20
2019-04-16T15:30:33.947Z,81.30
2019-04-16T15:35:47.657Z,81.40
2019-04-16T15:40:55.168Z,83.00
2019-04-16T15:46:26.574Z,82.50
2019-04-16T15:51:56.923Z,82.00
2019-04-16T15:57:31.539Z,85.10
2019-04-16T16:02:54.209Z,83.70
2019-04-16T16:08:10.297Z,82.10
2019-04-16T16:13:26.299Z,83.70
2019-04-16T16:18:29.865Z,87.00
2019-04-16T16:23:35.435Z,87.50
2019-04-16T16:28:44.426Z,87.40
2019-04-16T16:33:48.989Z,87.40
2019-04-16T16:38:53.467Z,87.30
2019-04-16T16:44:02.890Z,88.50
2019-04-16T16:49:11.210Z,89.10
2019-04-16T16:54:23.475Z,90.20
2019-04-16T16:59:32.949Z,90.60
2019-04-16T17:04:42.822Z,90.50
2019-04-16T17:09:47.424Z,90.70
2019-04-16T17:14:52.647Z,91.60
2019-04-16T17:19:57.243Z,99.90
2019-04-16T17:25:02.214Z,99.90
2019-04-16T17:35:21.378Z,99.90
2019-04-16T17:45:59.475Z,99.90
2019-04-16T17:51:26.834Z,99.90
2019-04-16T17:57:04.600Z,99.90
2019-04-16T18:02:40.653Z,99.90
2019-04-16T18:08:09.197Z,99.90
2019-04-16T18:13:36.617Z,99.90
2019-04-16T18:19:02.081Z,99.90
2019-04-16T18:24:25.866Z,99.90
2019-04-16T18:29:39.020Z,99.90
2019-04-16T18:35:06.021Z,99.90
2019-04-16T18:46:15.065Z,99.90
2019-04-16T18:51:18.702Z,99.90
2019-04-16T18:56:42.085Z,99.90
2019-04-16T19:01:53.135Z,99.90
2019-04-16T19:06:58.802Z,99.90
2019-04-16T19:12:07.309Z,99.90
2019-04-16T19:17:16.636Z,99.90
2019-04-16T19:22:19.985Z,99.90
2019-04-16T19:27:32.322Z,99.90
2019-04-16T19:38:14.530Z,99.90
2019-04-16T19:43:34.672Z,99.90
2019-04-16T19:48:51.239Z,99.90
2019-04-16T19:53:59.167Z,99.90
2019-04-16T19:59:11.097Z,99.90
2019-04-16T20:04:24.460Z,99.90
2019-04-16T20:09:39.213Z,99.90
2019-04-16T20:14:49.907Z,99.90
2019-04-16T20:20:13.901Z,99.90
2019-04-16T20:25:36.929Z,99.90
2019-04-16T20:30:46.928Z,99.90
2019-04-16T20:35:58.673Z,99.90
2019-04-16T20:41:19.225Z,99.90
2019-04-16T20:51:45.070Z,99.90
2019-04-16T20:57:05.190Z,99.90
2019-04-16T21:02:15.180Z,99.90
2019-04-16T21:07:28.936Z,99.90
2019-04-16T21:12:45.021Z,99.90
2019-04-16T21:18:11.891Z,99.90
2019-04-16T21:23:18.927Z,99.90
2019-04-16T21:28:42.197Z,99.90
2019-04-16T21:33:55.019Z,99.90
2019-04-16T21:39:30.557Z,99.90
2019-04-16T21:44:44.698Z,99.90
2019-04-16T21:49:50.267Z,99.90
2019-04-16T21:54:55.547Z,99.90
2019-04-16T22:00:02.404Z,99.90
2019-04-16T22:05:16.739Z,99.90
2019-04-16T22:10:19.418Z,99.90
2019-04-16T22:15:27.166Z,99.90
2019-04-16T22:20:35.586Z,99.90
2019-04-16T22:25:39.050Z,99.90
2019-04-16T22:30:43.753Z,99.90
2019-04-16T22:35:48.250Z,99.90
2019-04-16T22:41:01.573Z,99.90
2019-04-16T22:46:10.261Z,99.90
2019-04-16T22:51:15.026Z,99.90
2019-04-16T22:56:20.669Z,99.90
2019-04-16T23:01:26.079Z,99.90
2019-04-16T23:06:30.875Z,99.90
2019-04-16T23:11:39.002Z,99.90
2019-04-16T23:16:43.373Z,99.90
2019-04-16T23:21:48.014Z,99.90
2019-04-16T23:26:52.643Z,99.90
2019-04-16T23:31:57.300Z,99.90
2019-04-16T23:37:02.305Z,99.90
2019-04-16T23:42:07.175Z,99.90
2019-04-16T23:47:34.370Z,99.90
2019-04-16T23:52:44.160Z,99.90
2019-04-16T23:58:28.099Z,99.90
